Time;durP1;ratioP1;P1;durP2;ratioP2;P2;SDS_P1;SDS_P2;PMS_P1;PMS_P2;Temp;Humidity;BMP_temperature;BMP_pressure;BME280_temperature;BME280_humidity;BME280_pressure;Samples;Min_cycle;Max_cycle;Signal;HPM_P1;HPM_P2
2021/08/09 00:02:18;;;;;;;1.70;1.02;;;;;;;22.64;54.19;101188.78;5032029;28;20033;-76
2021/08/09 00:04:44;;;;;;;1.38;1.00;;;;;;;22.68;54.01;101193.13;5031894;28;20029;-75
2021/08/09 00:07:10;;;;;;;1.77;1.30;;;;;;;22.65;54.13;101190.53;5034320;28;20029;-76
2021/08/09 00:09:36;;;;;;;3.92;1.23;;;;;;;22.64;54.00;101197.56;5035373;28;20045;-76
2021/08/09 00:12:02;;;;;;;2.78;1.25;;;;;;;22.67;54.15;101199.31;5019145;28;20091;-76
2021/08/09 00:14:28;;;;;;;2.72;1.00;;;;;;;22.64;54.48;101191.44;5035696;28;20040;-76
2021/08/09 00:16:54;;;;;;;2.30;1.45;;;;;;;22.67;54.08;101200.16;5036912;28;20041;-76
2021/08/09 00:19:19;;;;;;;1.60;1.02;;;;;;;22.65;54.13;101201.09;5035606;28;20022;-74
2021/08/09 00:21:44;;;;;;;1.60;1.05;;;;;;;22.66;54.14;101202.81;5036671;28;20021;-75
2021/08/09 00:24:10;;;;;;;2.60;1.08;;;;;;;22.65;54.19;101204.59;5018858;28;20052;-76
2021/08/09 00:26:36;;;;;;;1.67;1.13;;;;;;;22.65;54.19;101196.69;5035367;28;20388;-76
2021/08/09 00:29:01;;;;;;;2.60;1.42;;;;;;;22.61;54.17;101188.84;5035130;28;20025;-76
2021/08/09 00:31:27;;;;;;;2.17;1.58;;;;;;;22.62;54.05;101198.50;5035204;28;20033;-76
2021/08/09 00:33:52;;;;;;;2.35;1.30;;;;;;;22.66;54.07;101200.19;5036325;28;20530;-76
2021/08/09 00:36:18;;;;;;;1.42;1.17;;;;;;;22.63;54.09;101193.19;5035155;28;20038;-76
2021/08/09 00:38:44;;;;;;;2.88;1.10;;;;;;;22.62;54.25;101198.50;5035028;28;20484;-76
2021/08/09 00:41:10;;;;;;;2.15;1.17;;;;;;;22.65;54.02;101199.31;5035033;28;20022;-76
2021/08/09 00:43:35;;;;;;;2.85;1.65;;;;;;;22.61;54.13;101192.34;5018389;28;20042;-74
2021/08/09 00:46:04;;;;;;;1.77;1.00;;;;;;;22.64;54.21;101207.25;5018413;28;20034;-74
2021/08/09 00:48:31;;;;;;;2.47;1.40;;;;;;;22.63;54.17;101213.41;5034773;28;20053;-74
2021/08/09 00:50:57;;;;;;;2.47;1.27;;;;;;;22.61;54.04;101191.47;5036000;28;20478;-74
2021/08/09 00:53:23;;;;;;;1.00;0.80;;;;;;;22.63;54.02;101200.22;5034796;28;20057;-74
2021/08/09 00:55:51;;;;;;;2.03;1.00;;;;;;;22.64;54.19;101207.25;5036123;28;20064;-74
2021/08/09 00:58:17;;;;;;;1.40;1.10;;;;;;;22.61;54.19;101196.75;5035969;28;20021;-74
2021/08/09 01:00:42;;;;;;;3.38;1.50;;;;;;;22.63;54.16;101200.22;5034871;28;20498;-74
2021/08/09 01:03:07;;;;;;;1.30;0.93;;;;;;;22.63;54.09;101201.09;5034968;28;20506;-74
2021/08/09 01:05:33;;;;;;;2.03;1.02;;;;;;;22.62;54.02;101198.50;5034386;28;20030;-74
2021/08/09 01:08:27;;;;;;;2.15;1.25;;;;;;;22.63;54.16;101201.09;5017830;28;20046;-74
2021/08/09 01:10:58;;;;;;;2.45;1.20;;;;;;;22.64;54.25;101208.13;5035708;28;20053;-74
2021/08/09 01:13:31;;;;;;;3.17;1.65;;;;;;;22.64;54.14;101207.25;5034413;28;20037;-74
2021/08/09 01:16:07;;;;;;;3.03;1.77;;;;;;;22.63;54.11;101203.75;5035525;28;20057;-72
2021/08/09 01:18:36;;;;;;;1.75;1.00;;;;;;;22.64;54.07;101213.41;5033801;28;20491;-74
2021/08/09 01:21:02;;;;;;;2.25;1.33;;;;;;;22.62;54.11;101201.13;5034141;28;20078;-74
2021/08/09 01:23:42;;;;;;;3.92;1.15;;;;;;;22.64;54.04;101207.25;5035481;28;20030;-74
2021/08/09 01:26:19;;;;;;;2.92;1.60;;;;;;;22.62;54.23;101209.03;5034261;28;20029;-74
2021/08/09 01:28:46;;;;;;;3.20;2.17;;;;;;;22.63;54.17;101208.16;5034134;28;20476;-74
2021/08/09 01:31:13;;;;;;;2.05;1.13;;;;;;;22.62;54.25;101215.19;5034325;28;20026;-74
2021/08/09 01:33:39;;;;;;;3.75;1.40;;;;;;;22.61;54.18;101207.28;5035202;28;20033;-74
2021/08/09 01:36:06;;;;;;;1.90;1.00;;;;;;;22.62;54.12;101216.94;5035255;28;20037;-74
2021/08/09 01:38:34;;;;;;;1.40;0.82;;;;;;;22.58;54.19;101213.50;5033852;28;20029;-74
2021/08/09 01:41:01;;;;;;;1.83;1.00;;;;;;;22.61;54.21;101220.47;5017706;28;20188;-74
2021/08/09 01:43:27;;;;;;;3.95;1.35;;;;;;;22.62;54.12;101219.59;5033834;28;20091;-73
2021/08/09 01:45:54;;;;;;;2.30;1.20;;;;;;;22.62;54.29;101219.59;5033794;28;20025;-74
2021/08/09 01:48:21;;;;;;;1.67;1.05;;;;;;;22.60;54.23;101229.28;5033734;28;20033;-73
2021/08/09 01:50:47;;;;;;;1.77;1.40;;;;;;;22.60;54.28;101230.16;5033876;28;20079;-74
2021/08/09 01:53:13;;;;;;;1.40;1.20;;;;;;;22.58;54.30;101229.31;5017198;28;20430;-74
2021/08/09 01:55:39;;;;;;;2.08;1.20;;;;;;;22.58;54.26;101223.19;5017034;28;20075;-74
2021/08/09 01:58:05;;;;;;;3.05;1.13;;;;;;;22.61;54.22;101225.75;5034836;28;20062;-74
2021/08/09 02:00:31;;;;;;;2.08;1.13;;;;;;;22.57;54.34;101226.72;5017139;28;20037;-74
2021/08/09 02:02:57;;;;;;;2.22;1.23;;;;;;;22.60;54.23;101232.78;5017386;28;20053;-75
2021/08/09 02:05:23;;;;;;;2.97;1.25;;;;;;;22.58;54.26;101236.38;5034604;28;20057;-74
2021/08/09 02:07:49;;;;;;;1.45;0.93;;;;;;;22.56;54.34;101236.38;5033381;28;20030;-74
2021/08/09 02:10:27;;;;;;;2.17;1.15;;;;;;;22.59;54.29;101233.66;5034290;28;20088;-74
2021/08/09 02:13:20;;;;;;;1.60;1.42;;;;;;;22.59;54.37;101233.66;5034796;28;20460;-74
2021/08/09 02:15:57;;;;;;;1.90;1.23;;;;;;;22.59;54.27;101232.84;5033387;28;20020;-75
2021/08/09 02:18:56;;;;;;;2.35;1.25;;;;;;;22.59;54.37;101238.09;5033268;28;20025;-74
2021/08/09 02:21:28;;;;;;;1.50;1.23;;;;;;;22.56;54.32;101238.16;5034351;28;20476;-74
2021/08/09 02:24:08;;;;;;;2.05;1.05;;;;;;;22.57;54.32;101235.50;5034476;28;20029;-74
2021/08/09 02:26:48;;;;;;;3.03;1.50;;;;;;;22.56;54.42;101239.03;5034332;28;20033;-74
2021/08/09 02:29:26;;;;;;;1.50;0.90;;;;;;;22.58;54.00;101239.88;5033806;28;20379;-74
2021/08/09 02:31:55;;;;;;;1.80;1.33;;;;;;;22.58;54.25;101239.88;5032864;28;20361;-74
2021/08/09 02:34:24;;;;;;;1.92;1.20;;;;;;;22.54;54.26;101238.16;5032847;28;20112;-74
2021/08/09 02:36:51;;;;;;;1.90;1.42;;;;;;;22.55;54.27;101239.03;5034112;28;20040;-74
2021/08/09 02:39:17;;;;;;;1.67;1.00;;;;;;;22.57;54.34;101246.03;5016379;28;20115;-74
2021/08/09 02:41:42;;;;;;;1.58;1.08;;;;;;;22.57;54.35;101248.66;5016393;28;20037;-74
2021/08/09 02:44:08;;;;;;;1.50;1.10;;;;;;;22.55;54.26;101239.91;5032938;28;20388;-74
2021/08/09 02:46:35;;;;;;;2.63;1.38;;;;;;;22.56;54.42;101235.50;5016431;28;20387;-74
2021/08/09 02:49:01;;;;;;;2.17;0.98;;;;;;;22.56;54.35;101244.28;5032707;28;20480;-74
2021/08/09 02:51:27;;;;;;;1.45;1.02;;;;;;;22.51;54.23;101238.22;5033079;28;20037;-75
2021/08/09 02:53:53;;;;;;;3.17;1.23;;;;;;;22.49;54.11;101234.72;5017418;28;20601;-74
2021/08/09 02:56:24;;;;;;;1.92;1.20;;;;;;;22.57;54.31;101248.66;5033183;28;20071;-74
2021/08/09 02:58:51;;;;;;;2.35;1.40;;;;;;;22.53;54.20;101241.69;5034100;28;20048;-74
2021/08/09 03:01:18;;;;;;;2.20;1.10;;;;;;;22.56;54.42;101246.06;5033959;28;20029;-73
2021/08/09 03:03:48;;;;;;;1.98;1.02;;;;;;;22.53;54.36;101246.09;5032584;28;20029;-73
2021/08/09 03:06:14;;;;;;;2.42;1.20;;;;;;;22.55;54.40;101249.59;5032403;28;20036;-74
2021/08/09 03:08:40;;;;;;;4.15;1.77;;;;;;;22.52;54.52;101245.22;5032096;28;20053;-74
2021/08/09 03:11:07;;;;;;;2.72;1.30;;;;;;;22.53;54.29;101246.97;5016073;28;20132;-72
2021/08/09 03:13:32;;;;;;;1.73;1.00;;;;;;;22.55;54.38;101252.22;5016177;28;20128;-73
2021/08/09 03:15:58;;;;;;;2.95;1.30;;;;;;;22.53;54.40;101249.59;5015784;28;20137;-74
2021/08/09 03:18:23;;;;;;;1.92;1.17;;;;;;;22.55;54.34;101262.75;5032247;28;20167;-73
2021/08/09 03:20:49;;;;;;;1.45;0.98;;;;;;;22.54;54.37;101255.75;5032371;28;20033;-74
2021/08/09 03:23:14;;;;;;;1.88;1.10;;;;;;;22.51;54.32;101251.38;5015736;28;20104;-74
2021/08/09 03:25:40;;;;;;;1.83;1.27;;;;;;;22.51;54.37;101261.06;4999464;28;20372;-74
2021/08/09 03:28:06;;;;;;;2.80;1.17;;;;;;;22.54;54.36;101261.88;5032124;28;20472;-74
2021/08/09 03:30:31;;;;;;;1.23;1.10;;;;;;;22.54;54.30;101261.88;5033385;28;20021;-74
2021/08/09 03:32:57;;;;;;;1.70;1.00;;;;;;;22.51;54.49;101261.06;5032124;28;20034;-74
2021/08/09 03:35:22;;;;;;;2.25;0.93;;;;;;;22.52;54.35;101266.31;5015782;28;20045;-74
2021/08/09 03:37:48;;;;;;;1.45;0.88;;;;;;;22.38;54.18;101239.28;5032202;28;20079;-74
2021/08/09 03:40:14;;;;;;;1.40;1.00;;;;;;;22.52;54.35;101262.81;5032105;28;20479;-74
2021/08/09 03:42:39;;;;;;;1.92;1.13;;;;;;;22.52;54.40;101268.06;5035955;28;20032;-74
2021/08/09 03:45:05;;;;;;;1.80;1.30;;;;;;;22.53;54.41;101268.06;5037526;28;20033;-74
2021/08/09 03:47:31;;;;;;;1.45;1.00;;;;;;;22.50;54.48;101262.81;5036272;28;20033;-74
2021/08/09 03:49:56;;;;;;;1.50;0.93;;;;;;;22.52;54.40;101268.94;5036137;28;20075;-74
2021/08/09 03:52:22;;;;;;;2.92;1.60;;;;;;;22.39;54.30;101243.66;5037275;28;20038;-74
2021/08/09 03:54:47;;;;;;;1.77;1.00;;;;;;;22.49;54.38;101265.47;5035967;28;20025;-74
2021/08/09 03:57:12;;;;;;;1.77;1.20;;;;;;;22.50;54.55;101272.50;5036161;28;20395;-74
2021/08/09 03:59:38;;;;;;;1.77;1.05;;;;;;;22.50;54.41;101268.09;5019520;28;20080;-74
2021/08/09 04:02:03;;;;;;;1.92;1.42;;;;;;;22.49;54.32;101270.75;5019238;28;20026;-74
2021/08/09 04:04:28;;;;;;;2.20;1.10;;;;;;;22.52;54.40;101276.84;5002849;28;20404;-74
2021/08/09 04:06:54;;;;;;;2.35;0.98;;;;;;;22.48;54.58;101269.88;5036793;28;20041;-74
2021/08/09 04:09:19;;;;;;;2.08;1.17;;;;;;;22.49;54.36;101274.25;5036714;28;20029;-74
2021/08/09 04:11:44;;;;;;;2.33;1.30;;;;;;;22.49;54.39;101282.16;5036833;28;20040;-74
2021/08/09 04:14:10;;;;;;;1.63;1.00;;;;;;;22.51;54.24;101275.09;5019217;28;20029;-74
2021/08/09 04:16:35;;;;;;;2.65;1.10;;;;;;;22.49;54.36;101282.16;5036860;28;20029;-74
2021/08/09 04:19:01;;;;;;;2.33;0.77;;;;;;;22.50;54.35;101272.50;5019020;28;20025;-75
2021/08/09 04:21:26;;;;;;;1.38;1.00;;;;;;;22.48;54.31;101279.53;5035404;28;20395;-74
2021/08/09 04:23:53;;;;;;;2.40;1.23;;;;;;;22.48;54.27;101280.41;5035330;28;20208;-74
2021/08/09 04:26:19;;;;;;;2.45;1.20;;;;;;;22.49;54.43;101283.91;5035269;28;20376;-74
2021/08/09 04:28:45;;;;;;;2.08;1.02;;;;;;;22.45;54.35;101280.47;5036567;28;20026;-74
2021/08/09 04:31:10;;;;;;;1.90;0.93;;;;;;;22.51;54.39;101288.28;5035263;28;20037;-74
2021/08/09 04:33:43;;;;;;;1.42;1.02;;;;;;;22.50;54.44;101289.19;5036679;28;20034;-74
2021/08/09 04:36:09;;;;;;;2.97;1.02;;;;;;;22.51;54.37;101280.38;5036491;28;20025;-72
2021/08/09 04:38:35;;;;;;;1.27;0.90;;;;;;;22.45;54.44;101281.34;5035434;28;20025;-72
2021/08/09 04:41:03;;;;;;;1.65;1.20;;;;;;;22.50;54.41;101285.66;5018770;28;20029;-72
2021/08/09 04:43:28;;;;;;;2.35;1.50;;;;;;;22.48;54.51;101288.31;5036466;28;20119;-74
2021/08/09 04:45:54;;;;;;;2.17;1.48;;;;;;;22.51;54.34;101290.91;5002290;28;20060;-76
2021/08/09 04:48:19;;;;;;;2.42;0.93;;;;;;;22.45;54.48;101280.47;5034955;28;20033;-76
2021/08/09 04:50:44;;;;;;;1.20;0.90;;;;;;;22.46;54.28;101284.84;5018314;28;20034;-76
2021/08/09 04:53:10;;;;;;;2.40;1.15;;;;;;;22.48;54.40;101292.72;5017437;28;20022;-76
2021/08/09 04:55:36;;;;;;;1.77;1.23;;;;;;;22.46;54.35;101293.59;5018483;28;20091;-74
2021/08/09 04:58:01;;;;;;;2.03;0.93;;;;;;;22.49;54.26;101286.56;5036112;28;20025;-74
2021/08/09 05:00:26;;;;;;;1.95;1.35;;;;;;;22.49;54.20;101286.56;5034767;28;20495;-74
2021/08/09 05:02:52;;;;;;;3.22;0.95;;;;;;;22.46;54.35;101282.19;5018171;28;20116;-74
2021/08/09 05:05:17;;;;;;;3.15;1.65;;;;;;;22.49;54.38;101294.47;5018317;28;20029;-76
2021/08/09 05:07:45;;;;;;;1.15;0.82;;;;;;;22.45;54.19;101293.66;5034572;28;20032;-74
2021/08/09 05:10:11;;;;;;;2.88;1.10;;;;;;;22.47;54.17;101307.66;5034088;28;20064;-76
2021/08/09 05:12:36;;;;;;;1.58;0.75;;;;;;;22.47;54.35;101297.13;5035709;28;20038;-76
2021/08/09 05:15:02;;;;;;;1.25;0.95;;;;;;;22.49;54.36;101297.09;5034398;28;20037;-76
2021/08/09 05:17:28;;;;;;;1.52;1.08;;;;;;;22.45;54.47;101291.03;5035625;28;20030;-76
2021/08/09 05:19:53;;;;;;;1.80;0.80;;;;;;;22.46;54.38;101301.50;5034425;28;20030;-76
2021/08/09 05:22:19;;;;;;;1.80;1.10;;;;;;;22.43;54.29;101291.03;5035540;28;20491;-76
2021/08/09 05:24:47;;;;;;;2.85;1.10;;;;;;;22.45;54.33;101301.56;5035665;28;20025;-76
2021/08/09 05:27:12;;;;;;;1.42;0.75;;;;;;;22.44;54.29;101305.97;5035490;28;20443;-76
2021/08/09 05:29:38;;;;;;;1.52;0.93;;;;;;;22.43;54.28;101306.84;5035364;28;20120;-76
2021/08/09 05:32:04;;;;;;;1.30;0.90;;;;;;;22.47;54.51;101310.28;5034025;28;20025;-76
2021/08/09 05:34:31;;;;;;;2.70;1.50;;;;;;;22.49;54.33;101308.50;5017727;28;20037;-76
2021/08/09 05:36:57;;;;;;;1.30;0.90;;;;;;;22.49;54.07;101315.56;5033925;28;20029;-76
2021/08/09 05:39:23;;;;;;;1.35;0.75;;;;;;;22.44;54.34;101305.97;5033989;28;20107;-76
2021/08/09 05:41:48;;;;;;;1.95;0.98;;;;;;;22.50;54.19;101309.38;5036160;28;20029;-76
2021/08/09 05:44:13;;;;;;;2.33;1.38;;;;;;;22.46;54.18;101306.78;5037322;28;20472;-76
2021/08/09 05:46:39;;;;;;;1.77;1.42;;;;;;;22.46;54.34;101309.41;5018023;28;20037;-76
2021/08/09 05:49:05;;;;;;;2.35;1.23;;;;;;;22.52;54.18;101315.50;5033878;28;20454;-76
2021/08/09 05:51:34;;;;;;;1.25;0.80;;;;;;;22.49;54.19;101310.28;5035158;28;20083;-76
2021/08/09 05:54:00;;;;;;;2.20;0.95;;;;;;;22.51;54.13;101308.50;5017797;28;20124;-76
2021/08/09 05:56:25;;;;;;;1.55;1.00;;;;;;;22.53;54.11;101326.03;5034966;28;20072;-76
2021/08/09 05:58:51;;;;;;;1.45;0.95;;;;;;;22.51;54.11;101326.94;5033853;28;20112;-75
2021/08/09 06:01:16;;;;;;;2.33;1.00;;;;;;;22.53;54.31;101326.03;5017261;28;20044;-76
2021/08/09 06:03:41;;;;;;;1.85;1.13;;;;;;;22.52;54.29;101323.41;5034807;28;20033;-76
2021/08/09 06:06:07;;;;;;;1.30;0.90;;;;;;;22.56;54.12;101330.41;5016954;28;20030;-76
2021/08/09 06:08:33;;;;;;;1.20;0.80;;;;;;;22.52;54.16;101326.06;5034424;28;20097;-76
2021/08/09 06:10:58;;;;;;;1.08;0.93;;;;;;;22.54;54.14;101335.69;5033305;28;20373;-76
2021/08/09 06:13:23;;;;;;;2.53;1.02;;;;;;;22.54;54.26;101340.09;5033225;28;20029;-76
2021/08/09 06:15:48;;;;;;;1.13;0.82;;;;;;;22.54;54.28;101340.09;5034759;28;20025;-76
2021/08/09 06:18:14;;;;;;;1.52;1.20;;;;;;;22.52;54.29;101339.22;5033168;28;20065;-76
2021/08/09 06:20:39;;;;;;;2.28;1.23;;;;;;;22.55;54.23;101352.38;5034797;28;20033;-76
2021/08/09 06:23:05;;;;;;;1.58;0.98;;;;;;;22.52;54.21;101341.88;5034284;28;20033;-76
2021/08/09 06:25:30;;;;;;;1.33;0.95;;;;;;;22.57;54.21;101347.97;5016755;28;20068;-76
2021/08/09 06:27:56;;;;;;;1.30;0.82;;;;;;;22.59;54.10;101354.09;5016717;28;20029;-76
2021/08/09 06:30:21;;;;;;;0.93;0.63;;;;;;;22.57;54.16;101342.69;5016491;28;20040;-76
2021/08/09 06:32:47;;;;;;;1.05;0.75;;;;;;;22.60;54.12;101334.72;5033202;28;20036;-76
2021/08/09 06:35:12;;;;;;;1.90;1.42;;;;;;;22.57;54.19;101329.50;5034435;28;20033;-76
2021/08/09 06:37:38;;;;;;;1.60;0.93;;;;;;;22.65;53.96;101335.53;5016446;28;20033;-76
2021/08/09 06:40:04;;;;;;;1.23;0.80;;;;;;;22.66;53.88;101326.72;5016625;28;20100;-76
2021/08/09 06:42:29;;;;;;;1.13;0.73;;;;;;;22.77;54.00;101349.44;5033961;28;20087;-76
2021/08/09 06:44:55;;;;;;;1.25;0.82;;;;;;;22.79;53.73;101352.06;5032875;28;20033;-76
2021/08/09 06:47:20;;;;;;;1.23;0.77;;;;;;;22.84;53.67;101344.09;5033882;28;20475;-76
2021/08/09 06:49:46;;;;;;;2.10;0.70;;;;;;;22.86;53.55;101340.50;5032650;28;20388;-76
2021/08/09 06:52:11;;;;;;;1.85;0.85;;;;;;;22.88;53.71;101338.72;5032669;28;20048;-76
2021/08/09 06:54:36;;;;;;;2.60;0.93;;;;;;;22.95;53.32;101337.75;5032681;28;20026;-76
2021/08/09 06:57:02;;;;;;;2.20;1.13;;;;;;;22.93;53.47;101339.53;5016099;28;20032;-76
2021/08/09 06:59:27;;;;;;;1.80;1.35;;;;;;;22.95;53.45;101339.53;5016258;28;20068;-76
2021/08/09 07:01:53;;;;;;;1.35;0.90;;;;;;;22.97;53.36;101348.28;5033676;28;20025;-76
2021/08/09 07:04:18;;;;;;;1.70;0.95;;;;;;;22.94;53.55;101346.56;5033670;28;20383;-76
2021/08/09 07:06:48;;;;;;;1.65;1.17;;;;;;;22.99;53.48;101344.69;5032433;28;20037;-76
2021/08/09 07:09:13;;;;;;;1.77;0.90;;;;;;;23.04;53.08;101347.28;5033834;28;20116;-76
2021/08/09 07:11:39;;;;;;;2.72;0.77;;;;;;;23.06;53.25;101334.94;5016019;28;20080;-76
2021/08/09 07:14:04;;;;;;;0.75;0.60;;;;;;;23.09;53.28;101351.59;5032455;28;20034;-76
2021/08/09 07:16:29;;;;;;;0.80;0.60;;;;;;;23.09;53.40;101342.81;5033485;28;20018;-76
2021/08/09 07:18:55;;;;;;;1.42;1.00;;;;;;;23.06;53.49;101348.13;5032623;28;20416;-76
2021/08/09 07:21:20;;;;;;;2.22;0.88;;;;;;;23.02;53.53;101346.44;5033739;28;20025;-74
2021/08/09 07:23:47;;;;;;;1.40;0.75;;;;;;;23.00;53.66;101349.09;5032394;28;20476;-74
2021/08/09 07:26:12;;;;;;;1.17;0.70;;;;;;;22.94;53.83;101349.19;5032201;28;20030;-74
2021/08/09 07:28:37;;;;;;;1.42;0.85;;;;;;;22.93;53.91;101350.09;5033287;28;20041;-74
2021/08/09 07:31:03;;;;;;;1.25;0.80;;;;;;;22.90;54.05;101357.16;5032350;28;20428;-74
2021/08/09 07:33:29;;;;;;;1.45;1.15;;;;;;;22.86;54.02;101348.41;5032137;28;20029;-74
2021/08/09 07:35:54;;;;;;;2.75;1.13;;;;;;;22.87;54.07;101351.94;5015869;28;20036;-74
2021/08/09 07:38:19;;;;;;;1.58;1.08;;;;;;;22.85;54.15;101353.75;5015721;28;20030;-75
2021/08/09 07:40:45;;;;;;;2.55;1.33;;;;;;;22.82;54.03;101348.50;4999158;28;20031;-74
2021/08/09 07:43:10;;;;;;;2.38;0.82;;;;;;;22.86;54.28;101352.81;5031940;28;20030;-74
2021/08/09 07:45:36;;;;;;;1.42;0.70;;;;;;;22.82;54.15;101349.38;5032149;28;20380;-74
2021/08/09 07:48:03;;;;;;;1.25;0.90;;;;;;;22.88;53.93;101337.84;5033302;28;20464;-74
2021/08/09 07:50:29;;;;;;;1.60;0.82;;;;;;;22.89;54.06;101355.44;5033038;28;20460;-74
2021/08/09 07:52:55;;;;;;;1.75;0.80;;;;;;;22.88;53.40;101353.69;5031812;28;20129;-74
2021/08/09 07:55:20;;;;;;;0.80;0.60;;;;;;;22.86;53.87;101348.41;5015891;28;20049;-74
2021/08/09 07:57:46;;;;;;;1.40;0.80;;;;;;;22.89;54.07;101363.34;5033252;28;20089;-74
2021/08/09 08:00:12;;;;;;;1.02;0.90;;;;;;;22.82;54.11;101354.66;5031962;28;20120;-76
2021/08/09 08:02:37;;;;;;;0.88;0.80;;;;;;;22.80;54.16;101353.81;5033121;28;20036;-76
2021/08/09 08:05:03;;;;;;;1.75;0.68;;;;;;;22.82;54.23;101370.47;5015491;28;20021;-76
2021/08/09 08:07:31;;;;;;;1.08;0.73;;;;;;;22.75;54.12;101361.75;5032886;28;20038;-76
2021/08/09 08:09:56;;;;;;;1.35;0.98;;;;;;;22.76;54.28;101362.66;5015492;28;20404;-76
2021/08/09 08:12:22;;;;;;;2.03;0.75;;;;;;;22.80;54.19;101377.53;5015539;28;20029;-76
2021/08/09 08:14:47;;;;;;;1.27;0.80;;;;;;;22.76;54.18;101366.16;5031725;28;20041;-74
2021/08/09 08:17:13;;;;;;;1.50;0.73;;;;;;;22.76;54.28;101362.66;5033165;28;20022;-74
2021/08/09 08:19:38;;;;;;;1.13;0.82;;;;;;;22.68;54.10;101352.19;5016217;28;20033;-74
2021/08/09 08:22:03;;;;;;;1.00;0.80;;;;;;;22.76;54.34;101363.50;5033008;28;20056;-76
2021/08/09 08:24:29;;;;;;;1.40;0.80;;;;;;;22.77;54.29;101370.53;5031850;28;20380;-76
2021/08/09 08:26:55;;;;;;;1.45;0.60;;;;;;;22.78;54.18;101366.13;5033127;28;20036;-76
2021/08/09 08:29:21;;;;;;;2.00;0.68;;;;;;;22.77;54.11;101360.00;5035797;28;20026;-76
2021/08/09 08:31:46;;;;;;;1.58;0.90;;;;;;;22.82;54.06;101361.69;5035529;28;20043;-76
2021/08/09 08:34:11;;;;;;;0.85;0.60;;;;;;;22.79;54.17;101354.69;5035344;28;20399;-76
2021/08/09 08:36:37;;;;;;;0.82;0.60;;;;;;;22.78;54.36;101352.94;5002170;28;20398;-76
2021/08/09 08:39:03;;;;;;;1.55;0.60;;;;;;;22.80;54.13;101359.09;5036320;28;20035;-76
2021/08/09 08:41:30;;;;;;;1.30;0.80;;;;;;;22.79;54.19;101367.88;5035195;28;20029;-76
2021/08/09 08:43:56;;;;;;;2.28;0.68;;;;;;;22.82;54.10;101362.56;5018696;28;20036;-74
2021/08/09 08:46:22;;;;;;;1.20;0.80;;;;;;;22.83;54.09;101368.72;5036099;28;20456;-74
2021/08/09 08:48:48;;;;;;;2.05;0.60;;;;;;;22.83;53.84;101364.31;5036189;28;20048;-74
2021/08/09 08:51:13;;;;;;;1.25;0.80;;;;;;;22.86;54.00;101371.28;5002028;28;20029;-74
2021/08/09 08:53:39;;;;;;;1.20;0.80;;;;;;;22.85;54.06;101365.13;5034988;28;20537;-74
2021/08/09 08:56:08;;;;;;;2.03;1.30;;;;;;;22.83;53.97;101363.44;5035978;28;20438;-74
2021/08/09 08:58:34;;;;;;;0.85;0.70;;;;;;;22.83;53.96;101361.69;5034829;28;20030;-74
2021/08/09 09:01:00;;;;;;;2.00;1.17;;;;;;;22.82;54.02;101356.44;5034916;28;20067;-74
2021/08/09 09:03:27;;;;;;;1.35;0.65;;;;;;;22.85;54.08;101375.69;5018219;28;20037;-74
2021/08/09 09:06:04;;;;;;;1.23;0.60;;;;;;;22.80;54.13;101351.16;5035912;28;20026;-74
2021/08/09 09:08:52;;;;;;;1.05;0.70;;;;;;;22.84;53.96;101368.69;5034372;28;20033;-74
2021/08/09 09:11:23;;;;;;;0.88;0.82;;;;;;;22.88;54.01;101366.88;5035735;28;20085;-74
2021/08/09 09:13:58;;;;;;;1.00;0.80;;;;;;;22.86;53.96;101369.53;5035820;28;20025;-74
2021/08/09 09:16:25;;;;;;;1.02;0.90;;;;;;;22.88;54.05;101367.75;5034638;28;20494;-74
2021/08/09 09:18:55;;;;;;;1.15;0.70;;;;;;;22.87;54.09;101365.13;5034606;28;20041;-74
2021/08/09 09:21:35;;;;;;;2.05;0.75;;;;;;;22.88;54.11;101369.50;5035588;28;20079;-74
2021/08/09 09:24:20;;;;;;;1.15;0.70;;;;;;;22.86;54.01;101368.66;5036315;28;20028;-74
2021/08/09 09:26:52;;;;;;;1.95;1.05;;;;;;;22.87;53.95;101363.34;5050716;28;20060;-74
2021/08/09 09:29:18;;;;;;;1.13;0.50;;;;;;;22.89;54.06;101366.84;5049147;28;20026;-74
2021/08/09 09:31:46;;;;;;;1.52;0.93;;;;;;;22.87;54.11;101363.34;5036364;28;20753;-73
2021/08/09 09:34:17;;;;;;;0.95;0.65;;;;;;;22.89;53.97;101360.69;5047130;28;20469;-74
2021/08/09 09:36:54;;;;;;;0.90;0.80;;;;;;;22.86;54.22;101353.69;5035329;28;20032;-74
2021/08/09 09:39:40;;;;;;;1.13;0.70;;;;;;;22.85;54.14;101369.56;5033762;28;20032;-74
2021/08/09 09:42:09;;;;;;;0.63;0.60;;;;;;;22.87;54.02;101363.34;5034201;28;20029;-73
2021/08/09 09:44:37;;;;;;;1.00;0.63;;;;;;;22.86;53.95;101364.25;5033855;28;20029;-73
2021/08/09 09:47:26;;;;;;;1.30;0.80;;;;;;;22.86;54.06;101360.72;5033902;28;20032;-73
2021/08/09 09:49:53;;;;;;;1.42;0.93;;;;;;;22.87;53.99;101367.75;5034923;28;20369;-73
2021/08/09 09:52:36;;;;;;;0.95;0.63;;;;;;;22.87;54.29;101362.47;5033719;28;20116;-73
2021/08/09 09:55:08;;;;;;;1.75;1.02;;;;;;;22.86;54.01;101363.38;5033616;28;20021;-74
2021/08/09 09:57:34;;;;;;;1.17;0.57;;;;;;;22.82;54.01;101359.94;5033575;28;20064;-73
2021/08/09 10:00:00;;;;;;;1.35;0.80;;;;;;;22.85;54.08;101359.03;5034751;28;20026;-74
2021/08/09 10:02:26;;;;;;;1.45;0.75;;;;;;;22.86;54.08;101361.59;5034674;28;20030;-73
2021/08/09 10:04:52;;;;;;;1.35;0.88;;;;;;;22.83;54.10;101358.16;5033641;28;20116;-73
2021/08/09 10:07:25;;;;;;;3.17;1.08;;;;;;;22.84;54.09;101373.97;5033390;28;20026;-73
2021/08/09 10:09:52;;;;;;;1.85;0.60;;;;;;;22.85;54.15;101364.28;5033451;28;20042;-73
2021/08/09 10:12:22;;;;;;;1.10;0.68;;;;;;;22.82;53.98;101357.28;5034663;28;20033;-73
2021/08/09 10:14:48;;;;;;;1.10;0.80;;;;;;;22.85;53.81;101361.66;5034368;28;20506;-74
2021/08/09 10:17:15;;;;;;;1.05;0.60;;;;;;;22.84;54.01;101363.44;5033176;28;20028;-73
2021/08/09 10:19:41;;;;;;;1.55;0.85;;;;;;;22.86;53.87;101358.97;5033276;28;20501;-74
2021/08/09 10:22:06;;;;;;;1.08;0.60;;;;;;;22.88;53.91;101362.47;5033308;28;20112;-74
2021/08/09 10:24:42;;;;;;;0.77;0.68;;;;;;;22.88;53.92;101362.47;5033183;28;20349;-73
2021/08/09 10:27:08;;;;;;;1.60;0.80;;;;;;;22.89;53.93;101372.13;5033026;28;20112;-73
2021/08/09 10:29:59;;;;;;;0.90;0.60;;;;;;;22.88;54.01;101367.75;5034158;28;20460;-74
2021/08/09 10:32:25;;;;;;;0.68;0.60;;;;;;;22.81;53.99;101360.81;5033920;28;20036;-73
2021/08/09 10:34:50;;;;;;;0.77;0.50;;;;;;;22.87;53.94;101375.66;5034343;28;20029;-74
2021/08/09 10:37:19;;;;;;;1.30;0.60;;;;;;;22.87;53.90;101365.13;5035115;28;20037;-74
2021/08/09 10:39:50;;;;;;;0.90;0.60;;;;;;;22.89;53.85;101373.88;5018014;28;20033;-73
2021/08/09 10:42:40;;;;;;;1.40;0.93;;;;;;;22.87;54.06;101368.63;5032753;28;20083;-74
2021/08/09 10:45:08;;;;;;;1.45;0.93;;;;;;;22.85;53.95;101361.66;5027907;28;20499;-74
2021/08/09 10:47:46;;;;;;;0.80;0.70;;;;;;;22.89;53.94;101376.53;5034228;28;20029;-73
2021/08/09 10:50:26;;;;;;;1.15;0.68;;;;;;;22.90;53.88;101371.22;5033271;28;20025;-74
2021/08/09 10:52:54;;;;;;;0.80;0.80;;;;;;;22.89;53.88;101365.97;5033990;28;20025;-74
2021/08/09 10:55:31;;;;;;;1.52;0.65;;;;;;;22.91;53.74;101375.59;5032929;28;20029;-73
2021/08/09 10:58:02;;;;;;;1.48;0.98;;;;;;;22.92;53.79;101371.22;5033978;28;20017;-73
2021/08/09 11:00:42;;;;;;;1.48;0.70;;;;;;;22.92;53.91;101376.47;5032473;28;20112;-73
2021/08/09 11:03:10;;;;;;;1.85;0.60;;;;;;;22.91;53.84;101364.19;5032654;28;20029;-73
2021/08/09 11:05:36;;;;;;;1.30;0.50;;;;;;;22.88;53.78;101357.19;5016366;28;20079;-73
2021/08/09 11:08:24;;;;;;;0.93;0.63;;;;;;;22.90;53.84;101359.81;5033886;28;20057;-73
2021/08/09 11:10:59;;;;;;;1.92;0.70;;;;;;;22.92;53.88;101361.53;5033300;28;20053;-73
2021/08/09 11:13:26;;;;;;;1.10;0.60;;;;;;;22.94;53.82;101353.59;5033784;28;20117;-73
2021/08/09 11:16:00;;;;;;;0.98;0.60;;;;;;;22.94;53.59;101350.97;5033636;28;20035;-73
2021/08/09 11:18:29;;;;;;;1.88;1.02;;;;;;;22.89;53.92;101353.66;5033557;28;20116;-73
2021/08/09 11:21:06;;;;;;;0.80;0.60;;;;;;;22.91;53.86;101354.50;5033758;28;20341;-74
2021/08/09 11:23:41;;;;;;;0.77;0.50;;;;;;;22.92;53.88;101364.16;5033432;28;20029;-73
2021/08/09 11:26:17;;;;;;;1.73;0.73;;;;;;;22.93;53.70;101373.81;5032160;28;20384;-73
2021/08/09 11:28:43;;;;;;;1.13;0.85;;;;;;;22.94;53.82;101369.44;5033214;28;20071;-74